Aviation Digital Data Service (ADDS)

Output produced by METARs form (0648 UTC 28 November 2014)
found at http://aviationweather.gov/adds/metars/
 
KAND 280539Z 2806/2906 29004KT P6SM SKC 
     FM281100 00000KT P6SM SKC